Terminal Aerodrome Forecast
Issued by NWS Cleveland, OH

Home | Current Version | Previous Version | Text Only | Print | Product List | Glossary On
Versions: 1 2 3 4 5 6 7 8 9 10 11 12 13 14 15 16 17 18
000
FTUS41 KCLE 300520
TAFTOL
TAF
KTOL 300520Z 3006/0106 VRB03KT P6SM SCT007 OVC012
     FM300800 VRB03KT 4SM BR OVC007
      TEMPO 3009/3013 2SM BR OVC004
     FM301500 23008KT P6SM OVC015
     FM301700 23008KT P6SM -SHRA OVC025
     FM302300 28007KT P6SM BKN100
     FM010300 27007KT P6SM SKC
     FM010500 28007KT P6SM BKN007=

USA.gov is the U.S. government's official web portal to all federal, state and local government web resources and services.